AVK weather

Alva Regional Airport
Alva, Oklahoma, United States

Public forecast

Using degrees Fahrenheit for public forecast. Weather courtesy of forecast.io.

Current aviation weather report (METAR) for Alva Regional Airport

Retrieved 2019/10/14 03:35 UTC (0 seconds ago):

KAVK 140335Z AUTO 13005KT 10SM CLR 14/06 A2997 RMK AO2

Closest aviation forecast (TAF) to Alva Regional Airport

Forecast is more than 12 hours old.

Closest forecast is Vance Air Force Base, 44.7 nm (82.8 km) SE. Retrieved 2019/10/11 18:04 UTC (2 days ago):

TAF KEND 111800Z 1118/1224 34015G25KT 9999 SKC QNH3026INS BECMG 1202/1203 VRB06KT 9999 SKC QNH3026INS BECMG 1205/1206 22006KT 9999 SKC QNH3022INS BECMG 1216/1217 22015G20KT 9999 SKC QNH2999INS BECMG 1223/1224 20009KT 9999 SKC QNH2997INS TX14/1121Z TN03/1212Z